createdAt,value
2017-07-26T00:01:37.829Z,4.97
2017-07-26T00:04:04.550Z,6.03
2017-07-26T00:06:31.242Z,7.40
2017-07-26T00:08:57.222Z,7.60
2017-07-26T00:11:23.206Z,9.60
2017-07-26T00:13:49.161Z,8.93
2017-07-26T00:16:15.143Z,9.60
2017-07-26T00:18:41.125Z,8.93
2017-07-26T00:21:07.126Z,9.80
2017-07-26T00:23:33.825Z,10.37
2017-07-26T00:25:59.786Z,10.67
2017-07-26T00:28:25.745Z,10.10
2017-07-26T00:30:51.701Z,11.03
2017-07-26T00:33:17.694Z,10.77
2017-07-26T00:35:43.694Z,11.13
2017-07-26T00:38:09.652Z,10.93
2017-07-26T00:40:35.638Z,11.70
2017-07-26T00:43:01.591Z,11.80
2017-07-26T00:45:27.597Z,11.03
2017-07-26T00:47:53.542Z,11.50
2017-07-26T00:50:19.523Z,10.50
2017-07-26T00:52:45.477Z,9.50
2017-07-26T00:55:11.480Z,9.13
2017-07-26T00:57:37.457Z,6.90
2017-07-26T01:00:04.150Z,8.10
2017-07-26T01:02:30.128Z,5.70
2017-07-26T01:04:56.079Z,6.40
2017-07-26T01:07:22.077Z,6.27
2017-07-26T01:09:48.063Z,6.53
2017-07-26T01:12:14.026Z,5.90
2017-07-26T01:14:40.019Z,5.70
2017-07-26T01:17:06.014Z,6.70
2017-07-26T01:19:31.991Z,4.90
2017-07-26T01:21:57.946Z,5.43
2017-07-26T01:24:23.929Z,5.40
2017-07-26T01:26:49.949Z,5.20
2017-07-26T01:29:15.898Z,5.20
2017-07-26T01:31:41.870Z,5.50
2017-07-26T01:34:07.888Z,5.40
2017-07-26T01:36:34.593Z,5.63
2017-07-26T01:39:00.573Z,5.90
2017-07-26T01:41:26.517Z,4.60
2017-07-26T01:43:52.452Z,5.00
2017-07-26T01:46:19.206Z,4.00
2017-07-26T01:48:45.137Z,4.63
2017-07-26T01:51:11.095Z,5.10
2017-07-26T01:53:37.817Z,4.60
2017-07-26T01:56:04.497Z,4.97
2017-07-26T01:58:30.429Z,4.90
2017-07-26T02:00:56.398Z,4.63
2017-07-26T02:03:22.373Z,4.20
2017-07-26T02:05:49.106Z,4.30
2017-07-26T02:08:15.054Z,3.90
2017-07-26T02:10:41.013Z,4.50
2017-07-26T02:13:07.726Z,4.33
2017-07-26T02:15:33.677Z,3.90
2017-07-26T02:17:59.649Z,4.17
2017-07-26T02:20:26.405Z,4.33
2017-07-26T02:22:52.357Z,3.83
2017-07-26T02:25:18.302Z,4.40
2017-07-26T02:27:44.286Z,4.20
2017-07-26T02:30:10.274Z,4.60
2017-07-26T02:32:36.224Z,4.30
2017-07-26T02:35:03.295Z,4.03
2017-07-26T02:37:29.246Z,3.30
2017-07-26T02:39:55.194Z,3.77
2017-07-26T02:42:21.169Z,3.20
2017-07-26T02:44:47.889Z,3.40
2017-07-26T02:47:13.855Z,2.83
2017-07-26T02:49:39.875Z,2.80
2017-07-26T02:52:05.857Z,3.20
2017-07-26T02:54:31.829Z,3.53
2017-07-26T02:56:58.563Z,2.90
2017-07-26T02:59:24.520Z,2.43
2017-07-26T03:01:50.465Z,2.80
2017-07-26T03:04:17.186Z,3.00
2017-07-26T03:06:43.132Z,2.50
2017-07-26T03:09:09.125Z,2.60
2017-07-26T03:11:35.860Z,2.63
2017-07-26T03:14:01.830Z,2.37
2017-07-26T03:16:27.778Z,2.40
2017-07-26T03:18:53.763Z,2.30
2017-07-26T03:21:20.496Z,2.30
2017-07-26T03:23:47.178Z,2.20
2017-07-26T03:26:13.164Z,2.33
2017-07-26T03:28:39.126Z,3.00
2017-07-26T03:31:05.063Z,2.30
2017-07-26T03:33:31.042Z,2.73
2017-07-26T03:35:56.981Z,2.33
2017-07-26T03:38:22.947Z,2.07
2017-07-26T03:40:48.917Z,1.90
2017-07-26T03:43:14.865Z,2.63
2017-07-26T03:45:40.821Z,2.40
2017-07-26T03:48:06.782Z,2.57
2017-07-26T03:50:32.733Z,2.67
2017-07-26T03:52:58.717Z,2.20
2017-07-26T03:55:25.402Z,2.23
2017-07-26T03:57:51.353Z,2.50
2017-07-26T04:00:18.094Z,2.73
2017-07-26T04:02:44.054Z,2.50
2017-07-26T04:05:10.019Z,2.40
2017-07-26T04:07:35.997Z,2.43
2017-07-26T04:10:02.678Z,2.43
2017-07-26T04:12:28.635Z,3.00
2017-07-26T04:14:55.369Z,2.43
2017-07-26T04:17:21.341Z,2.30
2017-07-26T04:19:47.290Z,2.93
2017-07-26T04:22:13.293Z,1.93
2017-07-26T04:24:39.246Z,2.40
2017-07-26T04:27:05.193Z,2.27
2017-07-26T04:29:31.157Z,2.03
2017-07-26T04:31:57.178Z,2.50
2017-07-26T04:34:23.127Z,2.30
2017-07-26T04:36:49.830Z,2.30
2017-07-26T04:39:15.818Z,2.40
2017-07-26T04:41:41.786Z,2.63
2017-07-26T04:44:07.742Z,2.30
2017-07-26T04:46:33.718Z,1.90
2017-07-26T04:48:59.661Z,2.80
2017-07-26T04:51:25.629Z,2.30
2017-07-26T04:53:51.621Z,2.50
2017-07-26T04:56:17.567Z,2.33
2017-07-26T04:58:43.532Z,2.13
2017-07-26T05:01:09.539Z,1.83
2017-07-26T05:03:35.507Z,2.40
2017-07-26T05:06:01.510Z,2.70
2017-07-26T05:08:27.506Z,1.93
2017-07-26T05:10:53.459Z,2.17
2017-07-26T05:13:20.151Z,2.03
2017-07-26T05:15:46.126Z,2.30
2017-07-26T05:18:12.098Z,1.83
2017-07-26T05:20:38.858Z,2.10
2017-07-26T05:23:04.854Z,2.47
2017-07-26T05:25:30.806Z,2.10
2017-07-26T05:27:56.814Z,2.00
2017-07-26T05:30:22.766Z,1.90
2017-07-26T05:32:49.494Z,1.90
2017-07-26T05:35:16.234Z,1.97
2017-07-26T05:37:42.245Z,2.10
2017-07-26T05:40:08.204Z,1.57
2017-07-26T05:42:34.150Z,2.00
2017-07-26T05:45:00.882Z,2.17
2017-07-26T05:47:26.827Z,1.77
2017-07-26T05:49:52.783Z,1.73
2017-07-26T05:52:18.767Z,1.50
2017-07-26T05:54:44.714Z,1.70
2017-07-26T05:57:10.715Z,1.80
2017-07-26T05:59:37.409Z,1.60
2017-07-26T06:02:03.354Z,1.70
2017-07-26T06:04:29.344Z,1.50
2017-07-26T06:06:56.030Z,2.93
2017-07-26T06:09:22.009Z,3.57
2017-07-26T06:11:47.962Z,1.73
2017-07-26T06:14:13.915Z,1.40
2017-07-26T06:16:39.914Z,1.77
2017-07-26T06:19:06.610Z,1.70
2017-07-26T06:21:32.558Z,2.27
2017-07-26T06:23:58.582Z,1.80
2017-07-26T06:26:24.544Z,1.73
2017-07-26T06:28:50.500Z,2.03
2017-07-26T06:31:16.511Z,3.27
2017-07-26T06:33:42.479Z,2.10
2017-07-26T06:36:08.506Z,1.40
2017-07-26T06:38:34.478Z,1.87
2017-07-26T06:41:00.425Z,2.13
2017-07-26T06:43:26.410Z,1.70
2017-07-26T06:45:52.417Z,2.07
2017-07-26T06:48:19.107Z,2.10
2017-07-26T06:50:45.049Z,2.10
2017-07-26T06:53:11.809Z,2.60
2017-07-26T06:55:37.800Z,2.20
2017-07-26T06:58:04.498Z,1.87
2017-07-26T07:00:30.506Z,2.23
2017-07-26T07:02:56.509Z,2.33
2017-07-26T07:05:22.463Z,2.33
2017-07-26T07:07:48.419Z,2.40
2017-07-26T07:10:14.409Z,2.10
2017-07-26T07:12:40.364Z,2.80
2017-07-26T07:15:06.320Z,2.40
2017-07-26T07:17:32.309Z,2.00
2017-07-26T07:19:58.283Z,1.73
2017-07-26T07:22:24.229Z,1.77
2017-07-26T07:24:50.234Z,1.77
2017-07-26T07:27:16.178Z,1.50
2017-07-26T07:29:42.154Z,1.80
2017-07-26T07:32:08.171Z,1.80
2017-07-26T07:34:34.122Z,1.70
2017-07-26T07:37:00.074Z,1.43
2017-07-26T07:39:26.054Z,1.70
2017-07-26T07:41:53.007Z,1.77
2017-07-26T07:44:18.953Z,1.40
2017-07-26T07:46:44.928Z,1.10
2017-07-26T07:49:15.737Z,1.20
2017-07-26T07:51:41.747Z,1.40
2017-07-26T07:54:08.061Z,1.10
2017-07-26T07:56:34.745Z,1.10
2017-07-26T07:59:00.718Z,1.30
2017-07-26T08:01:26.705Z,1.60
2017-07-26T08:03:52.669Z,1.53
2017-07-26T08:06:18.616Z,1.37
2017-07-26T08:08:45.332Z,1.20
2017-07-26T08:11:11.319Z,1.40
2017-07-26T08:13:37.266Z,1.50
2017-07-26T08:16:03.253Z,1.80
2017-07-26T08:18:29.985Z,1.40
2017-07-26T08:20:56.672Z,1.60
2017-07-26T08:23:22.608Z,1.30
2017-07-26T08:25:48.589Z,1.43
2017-07-26T08:28:14.529Z,1.43
2017-07-26T08:30:40.776Z,0.90
2017-07-26T08:33:06.716Z,1.10
2017-07-26T08:35:32.666Z,1.40
2017-07-26T08:37:58.637Z,1.00
2017-07-26T08:40:24.617Z,1.00
2017-07-26T08:42:50.568Z,1.30
2017-07-26T08:45:16.541Z,1.10
2017-07-26T08:47:42.502Z,0.90
2017-07-26T08:50:09.282Z,0.77
2017-07-26T08:52:35.233Z,0.70
2017-07-26T08:55:01.921Z,0.90
2017-07-26T08:57:27.906Z,0.97
2017-07-26T08:59:53.898Z,1.00
2017-07-26T09:02:19.837Z,0.83
2017-07-26T09:04:45.793Z,0.90
2017-07-26T09:07:11.826Z,0.97
2017-07-26T09:09:37.785Z,1.00
2017-07-26T09:12:03.724Z,1.20
2017-07-26T09:14:30.444Z,1.20
2017-07-26T09:16:57.168Z,0.80
2017-07-26T09:19:23.849Z,1.10
2017-07-26T09:21:49.817Z,1.10
2017-07-26T09:24:15.821Z,1.03
2017-07-26T09:26:42.512Z,1.43
2017-07-26T09:29:08.473Z,1.13
2017-07-26T09:31:34.461Z,1.33
2017-07-26T09:34:01.146Z,1.60
2017-07-26T09:36:27.089Z,1.00
2017-07-26T09:38:53.818Z,1.33
2017-07-26T09:41:20.541Z,1.13
2017-07-26T09:43:47.224Z,1.30
2017-07-26T09:46:13.213Z,1.13
2017-07-26T09:48:39.175Z,1.00
2017-07-26T09:51:05.866Z,1.40
2017-07-26T09:53:31.885Z,2.03
2017-07-26T09:55:57.824Z,1.30
2017-07-26T09:58:24.509Z,1.50
2017-07-26T10:00:50.502Z,2.17
2017-07-26T10:03:16.450Z,2.23
2017-07-26T10:05:42.429Z,2.40
2017-07-26T10:08:08.376Z,3.10
2017-07-26T10:10:35.087Z,2.87
2017-07-26T10:13:01.024Z,2.63
2017-07-26T10:15:27.012Z,2.67
2017-07-26T10:17:52.962Z,3.17
2017-07-26T10:20:18.940Z,2.77
2017-07-26T10:22:45.698Z,3.10
2017-07-26T10:25:11.662Z,3.27
2017-07-26T10:27:37.629Z,4.27
2017-07-26T10:30:03.613Z,4.63
2017-07-26T10:32:29.562Z,4.17
2017-07-26T10:34:55.549Z,5.40
2017-07-26T10:37:21.488Z,5.87
2017-07-26T10:39:47.436Z,5.57
2017-07-26T10:42:13.437Z,5.30
2017-07-26T10:44:39.403Z,6.27
2017-07-26T10:47:05.347Z,6.23
2017-07-26T10:49:32.061Z,5.50
2017-07-26T10:51:58.032Z,5.80
2017-07-26T10:54:24.001Z,6.50
2017-07-26T10:56:49.985Z,6.40
2017-07-26T10:59:15.986Z,7.00
2017-07-26T11:01:41.955Z,7.93
2017-07-26T11:04:07.904Z,9.00
2017-07-26T11:06:33.881Z,8.90
2017-07-26T11:08:59.873Z,8.23
2017-07-26T11:11:25.813Z,8.67
2017-07-26T11:13:51.749Z,8.37
2017-07-26T11:16:18.478Z,8.23
2017-07-26T11:18:44.428Z,7.80
2017-07-26T11:21:10.442Z,8.13
2017-07-26T11:23:36.436Z,8.20
2017-07-26T11:26:02.381Z,7.63
2017-07-26T11:28:28.328Z,9.37
2017-07-26T11:30:54.296Z,8.83
2017-07-26T11:33:20.240Z,8.77
2017-07-26T11:35:46.965Z,9.47
2017-07-26T11:38:13.644Z,9.33
2017-07-26T11:40:39.601Z,9.67
2017-07-26T11:43:06.321Z,10.43
2017-07-26T11:45:33.005Z,10.87
2017-07-26T11:47:59.002Z,10.40
2017-07-26T11:50:24.956Z,9.73
2017-07-26T11:52:51.653Z,11.07
2017-07-26T11:55:17.644Z,10.20
2017-07-26T11:57:43.593Z,8.70
2017-07-26T12:00:09.577Z,9.53
2017-07-26T12:02:35.590Z,11.07
2017-07-26T12:05:01.528Z,10.00
2017-07-26T12:07:28.241Z,10.10
2017-07-26T12:09:54.228Z,8.63
2017-07-26T12:12:20.187Z,9.73
2017-07-26T12:14:46.125Z,8.50
2017-07-26T12:17:12.129Z,8.33
2017-07-26T12:19:38.094Z,6.77
2017-07-26T12:22:04.076Z,7.23
2017-07-26T12:24:30.048Z,7.90
2017-07-26T12:26:55.988Z,6.80
2017-07-26T12:29:21.973Z,5.97
2017-07-26T12:31:47.917Z,6.20
2017-07-26T12:34:13.865Z,5.87
2017-07-26T12:36:39.859Z,3.73
2017-07-26T12:39:06.541Z,4.50
2017-07-26T12:41:32.517Z,2.83
2017-07-26T12:43:58.461Z,3.27
2017-07-26T12:46:24.428Z,2.60
2017-07-26T12:48:50.364Z,2.63
2017-07-26T12:51:16.340Z,1.30
2017-07-26T12:53:42.361Z,1.30
2017-07-26T12:56:08.314Z,1.30
2017-07-26T12:58:34.252Z,1.07
2017-07-26T13:01:00.346Z,1.47
2017-07-26T13:03:27.017Z,1.30
2017-07-26T13:05:52.961Z,1.07
2017-07-26T13:08:18.938Z,1.50
2017-07-26T13:10:44.909Z,1.53
2017-07-26T13:13:11.649Z,1.27
2017-07-26T13:15:37.606Z,1.27
2017-07-26T13:18:03.556Z,1.27
2017-07-26T13:20:30.282Z,1.10
2017-07-26T13:22:56.249Z,1.10
2017-07-26T13:25:22.237Z,0.80
2017-07-26T13:27:48.184Z,1.07
2017-07-26T13:30:14.877Z,1.03
2017-07-26T13:32:40.882Z,0.97
2017-07-26T13:35:06.850Z,1.00
2017-07-26T13:37:32.831Z,1.30
2017-07-26T13:39:58.818Z,1.10
2017-07-26T13:42:24.760Z,1.10
2017-07-26T13:44:51.445Z,1.23
2017-07-26T13:47:17.417Z,0.90
2017-07-26T13:49:43.385Z,1.10
2017-07-26T13:52:09.393Z,1.20
2017-07-26T13:54:35.349Z,1.37
2017-07-26T13:57:01.290Z,1.30
2017-07-26T13:59:27.285Z,1.17
2017-07-26T14:01:53.228Z,1.60
2017-07-26T14:04:19.172Z,1.57
2017-07-26T14:06:45.156Z,1.60
2017-07-26T14:09:11.848Z,1.90
2017-07-26T14:11:37.794Z,1.60
2017-07-26T14:14:04.522Z,1.80
2017-07-26T14:16:31.272Z,2.10
2017-07-26T14:18:57.218Z,1.67
2017-07-26T14:21:23.201Z,2.23
2017-07-26T14:23:49.202Z,2.07
2017-07-26T14:26:15.204Z,2.50
2017-07-26T14:28:41.193Z,1.70
2017-07-26T14:31:07.140Z,1.80
2017-07-26T14:33:33.919Z,2.10
2017-07-26T14:35:59.855Z,2.13
2017-07-26T14:38:25.805Z,2.27
2017-07-26T14:40:51.805Z,2.20
2017-07-26T14:43:17.753Z,2.23
2017-07-26T14:45:44.448Z,2.27
2017-07-26T14:48:10.450Z,1.90
2017-07-26T14:50:36.405Z,2.20
2017-07-26T14:53:02.354Z,2.30
2017-07-26T14:55:28.339Z,2.03
2017-07-26T14:57:54.305Z,2.63
2017-07-26T15:00:20.266Z,3.17
2017-07-26T15:02:46.249Z,2.80
2017-07-26T15:05:12.200Z,2.40
2017-07-26T15:07:38.184Z,2.20
2017-07-26T15:10:04.180Z,2.43
2017-07-26T15:12:30.129Z,2.20
2017-07-26T15:14:56.078Z,2.93
2017-07-26T15:17:22.832Z,2.50
2017-07-26T15:19:48.777Z,3.00
2017-07-26T15:22:14.720Z,2.30
2017-07-26T15:24:41.476Z,2.90
2017-07-26T15:27:07.481Z,2.10
2017-07-26T15:29:33.421Z,1.97
2017-07-26T15:31:59.365Z,2.13
2017-07-26T15:34:26.146Z,2.40
2017-07-26T15:36:52.088Z,2.17
2017-07-26T15:39:18.020Z,2.70
2017-07-26T15:41:44.016Z,2.77
2017-07-26T15:44:10.737Z,2.83
2017-07-26T15:46:36.680Z,2.57
2017-07-26T15:49:02.664Z,2.63
2017-07-26T15:51:29.355Z,2.67
2017-07-26T15:53:55.306Z,2.90
2017-07-26T15:56:21.269Z,2.90
2017-07-26T15:58:47.214Z,2.60
2017-07-26T16:01:13.208Z,2.97
2017-07-26T16:03:39.164Z,3.57
2017-07-26T16:06:05.133Z,3.20
2017-07-26T16:08:31.845Z,2.77
2017-07-26T16:10:57.786Z,3.30
2017-07-26T16:13:23.780Z,3.87
2017-07-26T16:15:50.457Z,3.63
2017-07-26T16:18:16.397Z,3.43
2017-07-26T16:20:42.381Z,4.20
2017-07-26T16:23:08.377Z,4.20
2017-07-26T16:25:34.349Z,3.23
2017-07-26T16:28:00.293Z,3.67
2017-07-26T16:30:26.260Z,4.00
2017-07-26T16:32:52.236Z,4.17
2017-07-26T16:35:18.172Z,4.50
2017-07-26T16:37:44.885Z,4.50
2017-07-26T16:40:11.632Z,5.20
2017-07-26T16:42:37.580Z,4.77
2017-07-26T16:45:03.518Z,4.10
2017-07-26T16:47:29.511Z,4.27
2017-07-26T16:49:55.480Z,5.30
2017-07-26T16:52:21.422Z,4.37
2017-07-26T16:54:47.397Z,4.93
2017-07-26T16:57:13.334Z,4.80
2017-07-26T16:59:39.337Z,5.07
2017-07-26T17:02:05.307Z,6.43
2017-07-26T17:04:31.258Z,5.90
2017-07-26T17:06:57.241Z,5.87
2017-07-26T17:09:23.187Z,5.90
2017-07-26T17:11:49.129Z,5.57
2017-07-26T17:14:15.849Z,5.30
2017-07-26T17:16:41.810Z,5.80
2017-07-26T17:19:07.802Z,6.63
2017-07-26T17:21:33.761Z,6.90
2017-07-26T17:23:59.741Z,6.90
2017-07-26T17:26:25.733Z,7.60
2017-07-26T17:28:51.669Z,6.80
2017-07-26T17:31:17.648Z,7.70
2017-07-26T17:33:43.632Z,5.70
2017-07-26T17:36:09.603Z,7.97
2017-07-26T17:38:35.585Z,7.37
2017-07-26T17:41:01.524Z,7.43
2017-07-26T17:43:27.468Z,7.60
2017-07-26T17:45:53.477Z,8.37
2017-07-26T17:48:19.416Z,8.00
2017-07-26T17:50:45.364Z,8.83
2017-07-26T17:53:12.453Z,8.63
2017-07-26T17:55:38.433Z,8.40
2017-07-26T17:58:04.368Z,8.20
2017-07-26T18:00:30.357Z,9.13
2017-07-26T18:02:56.297Z,9.30
2017-07-26T18:05:22.264Z,9.97
2017-07-26T18:07:48.245Z,8.50
2017-07-26T18:10:14.968Z,8.43
2017-07-26T18:12:41.667Z,8.20
2017-07-26T18:15:07.644Z,7.77
2017-07-26T18:17:33.593Z,7.33
2017-07-26T18:19:59.571Z,6.43
2017-07-26T18:22:25.658Z,8.10
2017-07-26T18:24:51.613Z,7.60
2017-07-26T18:27:17.629Z,7.90
2017-07-26T18:29:43.620Z,8.40
2017-07-26T18:32:09.610Z,11.27
2017-07-26T18:34:35.638Z,9.77
2017-07-26T18:37:01.577Z,9.10
2017-07-26T18:39:28.285Z,9.93
2017-07-26T18:41:54.230Z,8.80
2017-07-26T18:44:20.212Z,10.23
2017-07-26T18:46:46.157Z,10.13
2017-07-26T18:49:12.169Z,10.60
2017-07-26T18:51:38.145Z,11.07
2017-07-26T18:54:04.081Z,10.43
2017-07-26T18:56:30.073Z,11.00
2017-07-26T18:58:56.004Z,9.93
2017-07-26T19:01:21.949Z,12.40
2017-07-26T19:03:47.972Z,13.30
2017-07-26T19:06:13.929Z,12.00
2017-07-26T19:08:39.899Z,12.20
2017-07-26T19:11:05.889Z,12.70
2017-07-26T19:13:31.833Z,12.27
2017-07-26T19:15:58.517Z,13.20
2017-07-26T19:18:24.505Z,13.40
2017-07-26T19:20:50.444Z,12.50
2017-07-26T19:23:16.383Z,14.20
2017-07-26T19:25:43.145Z,13.17
2017-07-26T19:28:09.177Z,13.20
2017-07-26T19:30:35.156Z,13.37
2017-07-26T19:33:01.133Z,13.93
2017-07-26T19:35:27.837Z,13.63
2017-07-26T19:37:53.825Z,12.97
2017-07-26T19:40:19.770Z,13.27
2017-07-26T19:42:46.538Z,14.67
2017-07-26T19:45:12.536Z,11.60
2017-07-26T19:47:38.510Z,12.87
2017-07-26T19:50:05.196Z,13.13
2017-07-26T19:52:31.184Z,13.13
2017-07-26T19:54:57.124Z,11.60
2017-07-26T19:57:23.081Z,12.33
2017-07-26T19:59:49.125Z,13.00
2017-07-26T20:02:15.113Z,13.03
2017-07-26T20:04:41.093Z,12.33
2017-07-26T20:07:07.781Z,13.33
2017-07-26T20:09:33.781Z,12.73
2017-07-26T20:11:59.721Z,12.90
2017-07-26T20:14:25.670Z,12.50
2017-07-26T20:16:51.669Z,12.30
2017-07-26T20:19:17.605Z,10.93
2017-07-26T20:21:43.546Z,12.20
2017-07-26T20:24:09.573Z,13.70
2017-07-26T20:26:36.272Z,13.00
2017-07-26T20:29:02.242Z,12.57
2017-07-26T20:31:28.302Z,12.43
2017-07-26T20:33:54.241Z,13.50
2017-07-26T20:36:20.201Z,12.53
2017-07-26T20:38:46.172Z,12.50
2017-07-26T20:41:12.118Z,13.70
2017-07-26T20:43:38.058Z,12.30
2017-07-26T20:46:04.056Z,12.70
2017-07-26T20:48:29.990Z,13.23
2017-07-26T20:50:55.929Z,12.10
2017-07-26T20:53:21.940Z,11.80
2017-07-26T20:55:47.881Z,12.77
2017-07-26T20:58:13.836Z,12.50
2017-07-26T21:00:39.818Z,13.00
2017-07-26T21:03:06.501Z,13.80
2017-07-26T21:05:32.472Z,11.17
2017-07-26T21:07:58.449Z,13.43
2017-07-26T21:10:24.392Z,14.67
2017-07-26T21:12:50.372Z,13.57
2017-07-26T21:15:17.058Z,13.53
2017-07-26T21:17:43.053Z,11.60
2017-07-26T21:20:09.018Z,14.17
2017-07-26T21:22:35.704Z,12.93
2017-07-26T21:25:01.687Z,13.20
2017-07-26T21:27:27.677Z,13.90
2017-07-26T21:29:53.621Z,12.83
2017-07-26T21:32:19.565Z,13.27
2017-07-26T21:34:45.567Z,14.77
2017-07-26T21:37:12.425Z,15.47
2017-07-26T21:39:38.369Z,13.87
2017-07-26T21:42:04.363Z,13.93
2017-07-26T21:44:30.309Z,12.90
2017-07-26T21:46:56.285Z,12.90
2017-07-26T21:49:22.221Z,13.50
2017-07-26T21:51:48.158Z,12.20
2017-07-26T21:54:14.881Z,13.50
2017-07-26T21:56:41.569Z,11.87
2017-07-26T21:59:07.561Z,11.77
2017-07-26T22:01:33.509Z,11.37
2017-07-26T22:03:59.453Z,13.13
2017-07-26T22:06:25.452Z,11.03
2017-07-26T22:08:51.396Z,11.73
2017-07-26T22:11:17.337Z,12.33
2017-07-26T22:13:43.315Z,11.23
2017-07-26T22:16:09.317Z,12.20
2017-07-26T22:18:35.258Z,12.77
2017-07-26T22:21:01.201Z,12.20
2017-07-26T22:23:27.172Z,12.10
2017-07-26T22:25:53.156Z,11.70
2017-07-26T22:28:19.098Z,12.90
2017-07-26T22:30:45.786Z,12.53
2017-07-26T22:33:11.773Z,13.50
2017-07-26T22:35:37.746Z,12.77
2017-07-26T22:38:04.465Z,12.67
2017-07-26T22:40:30.404Z,13.77
2017-07-26T22:42:56.396Z,12.30
2017-07-26T22:45:23.076Z,12.10
2017-07-26T22:47:49.016Z,12.57
2017-07-26T22:50:15.729Z,13.70
2017-07-26T22:52:41.733Z,13.27
2017-07-26T22:55:07.673Z,13.30
2017-07-26T22:57:34.349Z,13.70
2017-07-26T23:00:00.349Z,12.00
2017-07-26T23:02:26.293Z,15.30
2017-07-26T23:04:52.240Z,13.63
2017-07-26T23:07:18.229Z,14.43
2017-07-26T23:09:44.913Z,16.60
2017-07-26T23:12:10.867Z,15.70
2017-07-26T23:14:36.856Z,14.70
2017-07-26T23:17:02.804Z,18.53
2017-07-26T23:19:28.769Z,17.77
2017-07-26T23:21:54.784Z,19.53
2017-07-26T23:24:21.464Z,19.93
2017-07-26T23:26:47.408Z,20.27
2017-07-26T23:29:13.401Z,21.97
2017-07-26T23:31:39.357Z,19.70
2017-07-26T23:34:05.335Z,22.87
2017-07-26T23:36:31.324Z,20.33
2017-07-26T23:38:57.260Z,21.47
2017-07-26T23:41:23.940Z,21.37
2017-07-26T23:43:49.916Z,24.17
2017-07-26T23:46:15.852Z,24.40
2017-07-26T23:48:41.844Z,22.50
2017-07-26T23:51:07.787Z,24.20
2017-07-26T23:53:33.728Z,23.67
2017-07-26T23:56:00.452Z,22.43
2017-07-26T23:58:26.393Z,21.40
